sensor_id;sensor_type;location;lat;lon;timestamp;P1;durP1;ratioP1;P2;durP2;ratioP2
75550;SDS011;65071;53.082;18.218;2023-02-03T00:02:03;8.80;;;2.60;;
75550;SDS011;65071;53.082;18.218;2023-02-03T00:04:29;11.70;;;3.00;;
75550;SDS011;65071;53.082;18.218;2023-02-03T00:06:56;8.60;;;2.90;;
75550;SDS011;65071;53.082;18.218;2023-02-03T00:09:23;3.90;;;2.00;;
75550;SDS011;65071;53.082;18.218;2023-02-03T00:11:50;4.60;;;1.80;;
75550;SDS011;65071;53.082;18.218;2023-02-03T00:14:16;5.20;;;2.10;;
75550;SDS011;65071;53.082;18.218;2023-02-03T00:16:43;3.80;;;1.80;;
75550;SDS011;65071;53.082;18.218;2023-02-03T00:19:09;5.40;;;2.60;;
75550;SDS011;65071;53.082;18.218;2023-02-03T00:21:36;3.80;;;2.00;;
75550;SDS011;65071;53.082;18.218;2023-02-03T00:24:03;8.60;;;2.80;;
75550;SDS011;65071;53.082;18.218;2023-02-03T00:26:30;5.20;;;2.10;;
75550;SDS011;65071;53.082;18.218;2023-02-03T00:28:58;3.90;;;1.90;;
75550;SDS011;65071;53.082;18.218;2023-02-03T00:31:25;5.20;;;2.00;;
75550;SDS011;65071;53.082;18.218;2023-02-03T00:33:53;5.00;;;2.00;;
75550;SDS011;65071;53.082;18.218;2023-02-03T00:36:21;3.60;;;1.80;;
75550;SDS011;65071;53.082;18.218;2023-02-03T00:38:49;3.20;;;1.60;;
75550;SDS011;65071;53.082;18.218;2023-02-03T00:41:16;4.20;;;1.80;;
75550;SDS011;65071;53.082;18.218;2023-02-03T00:43:43;4.10;;;1.60;;
75550;SDS011;65071;53.082;18.218;2023-02-03T00:46:10;5.00;;;1.70;;
75550;SDS011;65071;53.082;18.218;2023-02-03T00:48:37;4.80;;;1.80;;
75550;SDS011;65071;53.082;18.218;2023-02-03T00:51:04;5.40;;;2.10;;
75550;SDS011;65071;53.082;18.218;2023-02-03T00:53:31;2.20;;;1.10;;
75550;SDS011;65071;53.082;18.218;2023-02-03T00:55:58;6.30;;;1.80;;
75550;SDS011;65071;53.082;18.218;2023-02-03T00:58:25;5.10;;;1.70;;
75550;SDS011;65071;53.082;18.218;2023-02-03T01:00:53;5.30;;;2.30;;
75550;SDS011;65071;53.082;18.218;2023-02-03T01:03:21;5.50;;;2.30;;
75550;SDS011;65071;53.082;18.218;2023-02-03T01:05:48;5.20;;;2.30;;
75550;SDS011;65071;53.082;18.218;2023-02-03T01:08:15;4.40;;;1.70;;
75550;SDS011;65071;53.082;18.218;2023-02-03T01:10:42;3.40;;;1.70;;
75550;SDS011;65071;53.082;18.218;2023-02-03T01:13:09;5.00;;;2.00;;
75550;SDS011;65071;53.082;18.218;2023-02-03T01:15:35;6.10;;;2.50;;
75550;SDS011;65071;53.082;18.218;2023-02-03T01:18:02;4.90;;;2.20;;
75550;SDS011;65071;53.082;18.218;2023-02-03T01:20:29;3.10;;;1.70;;
75550;SDS011;65071;53.082;18.218;2023-02-03T01:22:58;2.90;;;2.00;;
75550;SDS011;65071;53.082;18.218;2023-02-03T01:25:24;4.90;;;2.10;;
75550;SDS011;65071;53.082;18.218;2023-02-03T01:27:51;5.10;;;2.00;;
75550;SDS011;65071;53.082;18.218;2023-02-03T01:30:18;3.30;;;1.00;;
75550;SDS011;65071;53.082;18.218;2023-02-03T01:32:44;4.00;;;1.80;;
75550;SDS011;65071;53.082;18.218;2023-02-03T01:35:11;3.10;;;1.40;;
75550;SDS011;65071;53.082;18.218;2023-02-03T01:37:38;4.40;;;1.90;;
75550;SDS011;65071;53.082;18.218;2023-02-03T01:40:05;3.60;;;2.20;;
75550;SDS011;65071;53.082;18.218;2023-02-03T01:42:33;5.30;;;2.10;;
75550;SDS011;65071;53.082;18.218;2023-02-03T01:45:00;3.90;;;2.00;;
75550;SDS011;65071;53.082;18.218;2023-02-03T01:47:51;3.20;;;1.70;;
75550;SDS011;65071;53.082;18.218;2023-02-03T01:50:25;5.60;;;1.80;;
75550;SDS011;65071;53.082;18.218;2023-02-03T01:53:07;5.40;;;1.80;;
75550;SDS011;65071;53.082;18.218;2023-02-03T01:55:39;4.50;;;2.20;;
75550;SDS011;65071;53.082;18.218;2023-02-03T01:58:11;4.60;;;2.30;;
75550;SDS011;65071;53.082;18.218;2023-02-03T02:00:51;4.10;;;1.90;;
75550;SDS011;65071;53.082;18.218;2023-02-03T02:03:19;6.40;;;1.90;;
75550;SDS011;65071;53.082;18.218;2023-02-03T02:05:49;4.00;;;2.00;;
75550;SDS011;65071;53.082;18.218;2023-02-03T02:08:21;4.90;;;1.90;;
75550;SDS011;65071;53.082;18.218;2023-02-03T02:10:49;5.40;;;2.40;;
75550;SDS011;65071;53.082;18.218;2023-02-03T02:13:17;4.00;;;1.90;;
75550;SDS011;65071;53.082;18.218;2023-02-03T02:15:50;5.50;;;1.80;;
75550;SDS011;65071;53.082;18.218;2023-02-03T02:21:23;2.90;;;1.20;;
75550;SDS011;65071;53.082;18.218;2023-02-03T02:24:21;4.50;;;1.80;;
75550;SDS011;65071;53.082;18.218;2023-02-03T02:30:07;3.00;;;1.60;;
75550;SDS011;65071;53.082;18.218;2023-02-03T02:38:01;6.00;;;2.50;;
75550;SDS011;65071;53.082;18.218;2023-02-03T02:40:38;6.50;;;2.40;;
75550;SDS011;65071;53.082;18.218;2023-02-03T02:43:34;5.40;;;1.80;;
75550;SDS011;65071;53.082;18.218;2023-02-03T02:46:13;4.30;;;1.80;;
75550;SDS011;65071;53.082;18.218;2023-02-03T02:51:35;3.50;;;1.40;;
75550;SDS011;65071;53.082;18.218;2023-02-03T02:54:04;4.60;;;1.70;;
75550;SDS011;65071;53.082;18.218;2023-02-03T02:56:35;5.90;;;1.40;;
75550;SDS011;65071;53.082;18.218;2023-02-03T02:59:04;3.80;;;2.40;;
75550;SDS011;65071;53.082;18.218;2023-02-03T03:01:33;4.70;;;2.40;;
75550;SDS011;65071;53.082;18.218;2023-02-03T03:04:00;7.90;;;2.30;;
75550;SDS011;65071;53.082;18.218;2023-02-03T03:09:28;5.70;;;2.20;;
75550;SDS011;65071;53.082;18.218;2023-02-03T03:12:42;6.70;;;1.60;;
75550;SDS011;65071;53.082;18.218;2023-02-03T03:15:07;3.00;;;1.80;;
75550;SDS011;65071;53.082;18.218;2023-02-03T03:17:41;5.50;;;2.30;;
75550;SDS011;65071;53.082;18.218;2023-02-03T03:20:12;7.70;;;2.70;;
75550;SDS011;65071;53.082;18.218;2023-02-03T03:22:47;5.40;;;2.60;;
75550;SDS011;65071;53.082;18.218;2023-02-03T03:25:20;6.90;;;3.50;;
75550;SDS011;65071;53.082;18.218;2023-02-03T03:27:57;5.60;;;2.90;;
75550;SDS011;65071;53.082;18.218;2023-02-03T03:30:33;5.40;;;2.40;;
75550;SDS011;65071;53.082;18.218;2023-02-03T03:33:02;6.20;;;2.80;;
75550;SDS011;65071;53.082;18.218;2023-02-03T03:35:32;6.40;;;3.40;;
75550;SDS011;65071;53.082;18.218;2023-02-03T03:38:18;6.80;;;2.50;;
75550;SDS011;65071;53.082;18.218;2023-02-03T03:40:51;5.90;;;2.70;;
75550;SDS011;65071;53.082;18.218;2023-02-03T03:43:25;6.80;;;2.80;;
75550;SDS011;65071;53.082;18.218;2023-02-03T03:45:57;6.80;;;3.30;;
75550;SDS011;65071;53.082;18.218;2023-02-03T03:48:36;5.50;;;2.60;;
75550;SDS011;65071;53.082;18.218;2023-02-03T03:51:18;6.50;;;2.80;;
75550;SDS011;65071;53.082;18.218;2023-02-03T03:53:49;6.00;;;2.50;;
75550;SDS011;65071;53.082;18.218;2023-02-03T03:56:23;4.50;;;2.60;;
75550;SDS011;65071;53.082;18.218;2023-02-03T03:58:54;8.00;;;3.20;;
75550;SDS011;65071;53.082;18.218;2023-02-03T04:03:53;6.60;;;2.60;;
75550;SDS011;65071;53.082;18.218;2023-02-03T04:06:23;7.60;;;4.10;;
75550;SDS011;65071;53.082;18.218;2023-02-03T04:08:50;10.80;;;6.40;;
75550;SDS011;65071;53.082;18.218;2023-02-03T04:11:17;7.40;;;3.70;;
75550;SDS011;65071;53.082;18.218;2023-02-03T04:14:03;8.20;;;3.10;;
75550;SDS011;65071;53.082;18.218;2023-02-03T04:16:30;11.20;;;4.60;;
75550;SDS011;65071;53.082;18.218;2023-02-03T04:18:56;3.80;;;1.90;;
75550;SDS011;65071;53.082;18.218;2023-02-03T04:21:23;7.70;;;2.20;;
75550;SDS011;65071;53.082;18.218;2023-02-03T04:23:50;7.60;;;2.90;;
75550;SDS011;65071;53.082;18.218;2023-02-03T04:26:17;11.70;;;2.60;;
75550;SDS011;65071;53.082;18.218;2023-02-03T04:28:44;13.90;;;4.40;;
75550;SDS011;65071;53.082;18.218;2023-02-03T04:31:10;10.50;;;2.80;;
75550;SDS011;65071;53.082;18.218;2023-02-03T04:33:37;9.90;;;3.20;;
75550;SDS011;65071;53.082;18.218;2023-02-03T04:36:04;7.30;;;2.10;;
75550;SDS011;65071;53.082;18.218;2023-02-03T04:38:31;6.50;;;2.60;;
75550;SDS011;65071;53.082;18.218;2023-02-03T04:40:58;8.30;;;2.80;;
75550;SDS011;65071;53.082;18.218;2023-02-03T04:43:25;11.10;;;3.70;;
75550;SDS011;65071;53.082;18.218;2023-02-03T04:45:52;8.30;;;3.60;;
75550;SDS011;65071;53.082;18.218;2023-02-03T04:48:18;10.60;;;3.50;;
75550;SDS011;65071;53.082;18.218;2023-02-03T04:50:45;7.90;;;2.50;;
75550;SDS011;65071;53.082;18.218;2023-02-03T04:53:11;11.50;;;3.80;;
75550;SDS011;65071;53.082;18.218;2023-02-03T04:55:38;8.90;;;3.00;;
75550;SDS011;65071;53.082;18.218;2023-02-03T04:58:05;8.40;;;2.60;;
75550;SDS011;65071;53.082;18.218;2023-02-03T05:00:31;7.80;;;2.80;;
75550;SDS011;65071;53.082;18.218;2023-02-03T05:02:58;3.60;;;2.00;;
75550;SDS011;65071;53.082;18.218;2023-02-03T05:05:25;6.50;;;2.50;;
75550;SDS011;65071;53.082;18.218;2023-02-03T05:07:51;7.20;;;2.40;;
75550;SDS011;65071;53.082;18.218;2023-02-03T05:10:18;8.50;;;3.10;;
75550;SDS011;65071;53.082;18.218;2023-02-03T05:12:45;8.90;;;2.80;;
75550;SDS011;65071;53.082;18.218;2023-02-03T05:15:12;6.40;;;2.50;;
75550;SDS011;65071;53.082;18.218;2023-02-03T05:17:38;6.70;;;2.80;;
75550;SDS011;65071;53.082;18.218;2023-02-03T05:20:06;5.70;;;3.20;;
75550;SDS011;65071;53.082;18.218;2023-02-03T05:22:33;4.80;;;1.90;;
75550;SDS011;65071;53.082;18.218;2023-02-03T05:25:01;5.90;;;2.40;;
75550;SDS011;65071;53.082;18.218;2023-02-03T05:27:29;7.20;;;2.60;;
75550;SDS011;65071;53.082;18.218;2023-02-03T05:29:56;3.20;;;1.70;;
75550;SDS011;65071;53.082;18.218;2023-02-03T05:32:22;5.80;;;2.70;;
75550;SDS011;65071;53.082;18.218;2023-02-03T05:34:49;4.60;;;2.40;;
75550;SDS011;65071;53.082;18.218;2023-02-03T05:37:16;5.20;;;2.40;;
75550;SDS011;65071;53.082;18.218;2023-02-03T05:39:42;4.30;;;1.50;;
75550;SDS011;65071;53.082;18.218;2023-02-03T05:42:09;6.30;;;2.70;;
75550;SDS011;65071;53.082;18.218;2023-02-03T05:44:36;7.10;;;3.10;;
75550;SDS011;65071;53.082;18.218;2023-02-03T05:47:02;7.00;;;3.10;;
75550;SDS011;65071;53.082;18.218;2023-02-03T05:49:29;7.30;;;2.60;;
75550;SDS011;65071;53.082;18.218;2023-02-03T05:52:12;5.10;;;3.10;;
75550;SDS011;65071;53.082;18.218;2023-02-03T05:54:39;6.50;;;2.30;;
75550;SDS011;65071;53.082;18.218;2023-02-03T05:57:06;5.90;;;2.80;;
75550;SDS011;65071;53.082;18.218;2023-02-03T05:59:32;5.00;;;2.20;;
75550;SDS011;65071;53.082;18.218;2023-02-03T06:01:59;6.00;;;3.00;;
75550;SDS011;65071;53.082;18.218;2023-02-03T06:04:25;7.80;;;3.50;;
75550;SDS011;65071;53.082;18.218;2023-02-03T06:06:52;5.50;;;2.60;;
75550;SDS011;65071;53.082;18.218;2023-02-03T06:09:19;6.20;;;2.60;;
75550;SDS011;65071;53.082;18.218;2023-02-03T06:11:45;8.50;;;3.50;;
75550;SDS011;65071;53.082;18.218;2023-02-03T06:14:12;10.00;;;3.40;;
75550;SDS011;65071;53.082;18.218;2023-02-03T06:16:38;8.90;;;3.30;;
75550;SDS011;65071;53.082;18.218;2023-02-03T06:19:05;6.10;;;2.40;;
75550;SDS011;65071;53.082;18.218;2023-02-03T06:21:31;8.30;;;3.20;;
75550;SDS011;65071;53.082;18.218;2023-02-03T06:23:58;6.70;;;3.00;;
75550;SDS011;65071;53.082;18.218;2023-02-03T06:26:25;9.30;;;3.70;;
75550;SDS011;65071;53.082;18.218;2023-02-03T06:28:51;7.00;;;2.90;;
75550;SDS011;65071;53.082;18.218;2023-02-03T06:31:18;7.80;;;4.10;;
75550;SDS011;65071;53.082;18.218;2023-02-03T06:33:45;6.90;;;3.70;;
75550;SDS011;65071;53.082;18.218;2023-02-03T06:36:11;6.40;;;3.00;;
75550;SDS011;65071;53.082;18.218;2023-02-03T06:38:38;6.50;;;3.60;;
75550;SDS011;65071;53.082;18.218;2023-02-03T06:41:05;9.80;;;4.90;;
75550;SDS011;65071;53.082;18.218;2023-02-03T06:43:31;10.30;;;5.30;;
75550;SDS011;65071;53.082;18.218;2023-02-03T06:45:58;17.40;;;7.70;;
75550;SDS011;65071;53.082;18.218;2023-02-03T06:48:25;15.10;;;6.40;;
75550;SDS011;65071;53.082;18.218;2023-02-03T06:50:51;9.60;;;4.60;;
75550;SDS011;65071;53.082;18.218;2023-02-03T06:53:18;17.90;;;8.10;;
75550;SDS011;65071;53.082;18.218;2023-02-03T06:55:45;12.30;;;5.60;;
75550;SDS011;65071;53.082;18.218;2023-02-03T06:58:13;9.50;;;4.30;;
75550;SDS011;65071;53.082;18.218;2023-02-03T07:00:39;9.50;;;4.40;;
75550;SDS011;65071;53.082;18.218;2023-02-03T07:03:06;7.20;;;2.60;;
75550;SDS011;65071;53.082;18.218;2023-02-03T07:05:33;9.50;;;5.20;;
75550;SDS011;65071;53.082;18.218;2023-02-03T07:08:01;7.10;;;3.10;;
75550;SDS011;65071;53.082;18.218;2023-02-03T07:10:28;17.10;;;8.70;;
75550;SDS011;65071;53.082;18.218;2023-02-03T07:12:57;10.20;;;5.00;;
75550;SDS011;65071;53.082;18.218;2023-02-03T07:15:27;15.50;;;7.70;;
75550;SDS011;65071;53.082;18.218;2023-02-03T07:17:54;10.20;;;5.20;;
75550;SDS011;65071;53.082;18.218;2023-02-03T07:20:21;10.80;;;4.70;;
75550;SDS011;65071;53.082;18.218;2023-02-03T07:22:52;8.70;;;4.40;;
75550;SDS011;65071;53.082;18.218;2023-02-03T07:25:20;7.80;;;4.10;;
75550;SDS011;65071;53.082;18.218;2023-02-03T07:27:47;9.50;;;4.70;;
75550;SDS011;65071;53.082;18.218;2023-02-03T07:30:14;9.30;;;4.10;;
75550;SDS011;65071;53.082;18.218;2023-02-03T07:32:45;9.10;;;4.50;;
75550;SDS011;65071;53.082;18.218;2023-02-03T07:35:12;9.60;;;5.10;;
75550;SDS011;65071;53.082;18.218;2023-02-03T07:37:39;14.90;;;6.90;;
75550;SDS011;65071;53.082;18.218;2023-02-03T07:40:07;13.10;;;4.60;;
75550;SDS011;65071;53.082;18.218;2023-02-03T07:42:35;10.60;;;3.80;;
75550;SDS011;65071;53.082;18.218;2023-02-03T07:45:06;9.10;;;3.60;;
75550;SDS011;65071;53.082;18.218;2023-02-03T07:47:33;8.70;;;3.70;;
75550;SDS011;65071;53.082;18.218;2023-02-03T07:50:00;9.80;;;4.40;;
75550;SDS011;65071;53.082;18.218;2023-02-03T07:52:26;12.30;;;3.90;;
75550;SDS011;65071;53.082;18.218;2023-02-03T07:54:53;7.90;;;3.70;;
75550;SDS011;65071;53.082;18.218;2023-02-03T07:57:20;9.60;;;3.30;;
75550;SDS011;65071;53.082;18.218;2023-02-03T07:59:46;11.20;;;5.70;;
75550;SDS011;65071;53.082;18.218;2023-02-03T08:02:13;10.80;;;5.30;;
75550;SDS011;65071;53.082;18.218;2023-02-03T08:04:40;7.60;;;2.80;;
75550;SDS011;65071;53.082;18.218;2023-02-03T08:07:06;12.60;;;5.80;;
75550;SDS011;65071;53.082;18.218;2023-02-03T08:09:33;16.70;;;8.30;;
75550;SDS011;65071;53.082;18.218;2023-02-03T08:12:00;8.10;;;3.70;;
75550;SDS011;65071;53.082;18.218;2023-02-03T08:14:27;10.80;;;5.50;;
75550;SDS011;65071;53.082;18.218;2023-02-03T08:16:53;11.10;;;3.80;;
75550;SDS011;65071;53.082;18.218;2023-02-03T08:19:20;8.20;;;4.60;;
75550;SDS011;65071;53.082;18.218;2023-02-03T08:21:46;11.00;;;5.40;;
75550;SDS011;65071;53.082;18.218;2023-02-03T08:24:13;14.70;;;5.90;;
75550;SDS011;65071;53.082;18.218;2023-02-03T08:26:40;10.90;;;5.40;;
75550;SDS011;65071;53.082;18.218;2023-02-03T08:29:06;10.80;;;5.50;;
75550;SDS011;65071;53.082;18.218;2023-02-03T08:31:33;12.10;;;5.90;;
75550;SDS011;65071;53.082;18.218;2023-02-03T08:34:00;7.30;;;3.70;;
75550;SDS011;65071;53.082;18.218;2023-02-03T08:36:26;9.10;;;4.70;;
75550;SDS011;65071;53.082;18.218;2023-02-03T08:38:53;11.90;;;7.20;;
75550;SDS011;65071;53.082;18.218;2023-02-03T08:41:19;10.30;;;5.80;;
75550;SDS011;65071;53.082;18.218;2023-02-03T08:43:46;11.00;;;5.90;;
75550;SDS011;65071;53.082;18.218;2023-02-03T08:46:13;12.70;;;8.40;;
75550;SDS011;65071;53.082;18.218;2023-02-03T08:48:39;12.90;;;6.90;;
75550;SDS011;65071;53.082;18.218;2023-02-03T08:51:10;13.00;;;7.70;;
75550;SDS011;65071;53.082;18.218;2023-02-03T08:53:38;13.20;;;8.50;;
75550;SDS011;65071;53.082;18.218;2023-02-03T08:56:05;10.90;;;6.30;;
75550;SDS011;65071;53.082;18.218;2023-02-03T08:58:33;21.60;;;14.10;;
75550;SDS011;65071;53.082;18.218;2023-02-03T09:01:10;23.90;;;12.60;;
75550;SDS011;65071;53.082;18.218;2023-02-03T09:03:38;13.20;;;7.40;;
75550;SDS011;65071;53.082;18.218;2023-02-03T09:06:06;11.40;;;5.60;;
75550;SDS011;65071;53.082;18.218;2023-02-03T09:08:34;9.00;;;5.80;;
75550;SDS011;65071;53.082;18.218;2023-02-03T09:11:01;12.40;;;5.80;;
75550;SDS011;65071;53.082;18.218;2023-02-03T09:13:27;8.10;;;4.90;;
75550;SDS011;65071;53.082;18.218;2023-02-03T09:15:54;9.00;;;4.60;;
75550;SDS011;65071;53.082;18.218;2023-02-03T09:18:20;8.90;;;5.20;;
75550;SDS011;65071;53.082;18.218;2023-02-03T09:20:47;11.00;;;5.50;;
75550;SDS011;65071;53.082;18.218;2023-02-03T09:23:14;9.40;;;5.00;;
75550;SDS011;65071;53.082;18.218;2023-02-03T09:25:41;13.20;;;6.90;;
75550;SDS011;65071;53.082;18.218;2023-02-03T09:28:07;12.90;;;6.80;;
75550;SDS011;65071;53.082;18.218;2023-02-03T09:30:34;12.70;;;7.20;;
75550;SDS011;65071;53.082;18.218;2023-02-03T09:33:00;16.70;;;8.20;;
75550;SDS011;65071;53.082;18.218;2023-02-03T09:35:27;17.50;;;8.90;;
75550;SDS011;65071;53.082;18.218;2023-02-03T09:37:56;19.60;;;9.40;;
75550;SDS011;65071;53.082;18.218;2023-02-03T09:40:26;20.80;;;9.10;;
75550;SDS011;65071;53.082;18.218;2023-02-03T09:43:03;18.80;;;9.20;;
75550;SDS011;65071;53.082;18.218;2023-02-03T09:45:38;20.00;;;9.30;;
75550;SDS011;65071;53.082;18.218;2023-02-03T09:48:08;18.00;;;7.80;;
75550;SDS011;65071;53.082;18.218;2023-02-03T09:50:42;19.40;;;10.30;;
75550;SDS011;65071;53.082;18.218;2023-02-03T09:53:32;16.50;;;8.20;;
75550;SDS011;65071;53.082;18.218;2023-02-03T09:56:04;14.80;;;8.30;;
75550;SDS011;65071;53.082;18.218;2023-02-03T09:58:33;13.90;;;8.00;;
75550;SDS011;65071;53.082;18.218;2023-02-03T10:01:05;15.30;;;7.00;;
75550;SDS011;65071;53.082;18.218;2023-02-03T10:03:41;16.80;;;7.70;;
75550;SDS011;65071;53.082;18.218;2023-02-03T10:06:19;21.20;;;10.60;;
75550;SDS011;65071;53.082;18.218;2023-02-03T10:11:53;12.60;;;6.80;;
75550;SDS011;65071;53.082;18.218;2023-02-03T10:17:37;10.70;;;6.50;;
75550;SDS011;65071;53.082;18.218;2023-02-03T10:22:56;17.30;;;9.00;;
75550;SDS011;65071;53.082;18.218;2023-02-03T10:28:09;9.50;;;5.10;;
75550;SDS011;65071;53.082;18.218;2023-02-03T10:30:43;12.60;;;6.90;;
75550;SDS011;65071;53.082;18.218;2023-02-03T10:33:15;10.20;;;5.50;;
75550;SDS011;65071;53.082;18.218;2023-02-03T10:41:11;7.50;;;4.00;;
75550;SDS011;65071;53.082;18.218;2023-02-03T10:43:40;33.20;;;16.30;;
75550;SDS011;65071;53.082;18.218;2023-02-03T10:46:13;27.30;;;14.20;;
75550;SDS011;65071;53.082;18.218;2023-02-03T10:48:41;12.90;;;7.20;;
75550;SDS011;65071;53.082;18.218;2023-02-03T10:51:52;8.30;;;5.00;;
75550;SDS011;65071;53.082;18.218;2023-02-03T10:54:03;6.60;;;4.00;;
75550;SDS011;65071;53.082;18.218;2023-02-03T10:56:31;7.10;;;3.60;;
75550;SDS011;65071;53.082;18.218;2023-02-03T10:59:02;6.90;;;3.40;;
75550;SDS011;65071;53.082;18.218;2023-02-03T11:01:40;6.80;;;3.50;;
75550;SDS011;65071;53.082;18.218;2023-02-03T11:04:25;11.30;;;6.70;;
75550;SDS011;65071;53.082;18.218;2023-02-03T11:07:00;14.20;;;9.90;;
75550;SDS011;65071;53.082;18.218;2023-02-03T11:14:44;11.20;;;6.00;;
75550;SDS011;65071;53.082;18.218;2023-02-03T11:17:16;8.90;;;5.50;;
75550;SDS011;65071;53.082;18.218;2023-02-03T11:19:58;8.30;;;5.00;;
75550;SDS011;65071;53.082;18.218;2023-02-03T11:22:35;10.30;;;7.30;;
75550;SDS011;65071;53.082;18.218;2023-02-03T11:25:13;8.40;;;4.30;;
75550;SDS011;65071;53.082;18.218;2023-02-03T11:27:44;9.80;;;6.30;;
75550;SDS011;65071;53.082;18.218;2023-02-03T11:30:16;8.30;;;4.70;;
75550;SDS011;65071;53.082;18.218;2023-02-03T11:32:51;8.80;;;5.90;;
75550;SDS011;65071;53.082;18.218;2023-02-03T11:35:23;9.30;;;5.30;;
75550;SDS011;65071;53.082;18.218;2023-02-03T11:37:54;11.30;;;6.70;;
75550;SDS011;65071;53.082;18.218;2023-02-03T11:40:32;6.30;;;3.80;;
75550;SDS011;65071;53.082;18.218;2023-02-03T11:43:04;13.00;;;7.30;;
75550;SDS011;65071;53.082;18.218;2023-02-03T11:45:41;19.20;;;11.30;;
75550;SDS011;65071;53.082;18.218;2023-02-03T11:48:24;7.10;;;4.30;;
75550;SDS011;65071;53.082;18.218;2023-02-03T12:07:45;12.90;;;5.50;;
75550;SDS011;65071;53.082;18.218;2023-02-03T12:13:18;8.60;;;4.40;;
75550;SDS011;65071;53.082;18.218;2023-02-03T12:29:13;6.40;;;3.20;;
75550;SDS011;65071;53.082;18.218;2023-02-03T12:32:27;6.10;;;4.10;;
75550;SDS011;65071;53.082;18.218;2023-02-03T12:34:42;3.70;;;2.40;;
75550;SDS011;65071;53.082;18.218;2023-02-03T12:39:55;4.50;;;2.60;;
75550;SDS011;65071;53.082;18.218;2023-02-03T12:42:31;4.50;;;2.50;;
75550;SDS011;65071;53.082;18.218;2023-02-03T12:45:16;3.10;;;1.70;;
75550;SDS011;65071;53.082;18.218;2023-02-03T12:47:54;4.00;;;2.60;;
75550;SDS011;65071;53.082;18.218;2023-02-03T12:50:34;2.80;;;1.80;;
75550;SDS011;65071;53.082;18.218;2023-02-03T12:53:25;5.00;;;2.90;;
75550;SDS011;65071;53.082;18.218;2023-02-03T12:56:18;7.00;;;4.10;;
75550;SDS011;65071;53.082;18.218;2023-02-03T13:01:57;3.00;;;1.80;;
75550;SDS011;65071;53.082;18.218;2023-02-03T13:04:32;3.70;;;2.30;;
75550;SDS011;65071;53.082;18.218;2023-02-03T13:10:03;5.00;;;2.70;;
75550;SDS011;65071;53.082;18.218;2023-02-03T13:12:40;2.10;;;1.40;;
75550;SDS011;65071;53.082;18.218;2023-02-03T13:17:46;6.40;;;3.00;;
75550;SDS011;65071;53.082;18.218;2023-02-03T13:20:21;3.40;;;2.30;;
75550;SDS011;65071;53.082;18.218;2023-02-03T13:22:54;9.50;;;4.30;;
75550;SDS011;65071;53.082;18.218;2023-02-03T13:31:20;7.00;;;4.90;;
75550;SDS011;65071;53.082;18.218;2023-02-03T13:45:32;12.90;;;4.80;;
75550;SDS011;65071;53.082;18.218;2023-02-03T13:48:21;14.60;;;5.80;;
75550;SDS011;65071;53.082;18.218;2023-02-03T13:51:01;7.30;;;3.20;;
75550;SDS011;65071;53.082;18.218;2023-02-03T13:53:34;21.00;;;9.00;;
75550;SDS011;65071;53.082;18.218;2023-02-03T13:56:03;9.80;;;5.10;;
75550;SDS011;65071;53.082;18.218;2023-02-03T14:03:52;20.80;;;7.90;;
